createdAt,value
2022-10-04T00:01:49.591Z,99351.16
2022-10-04T00:07:02.733Z,99351.78
2022-10-04T00:12:08.818Z,99347.72
2022-10-04T00:17:21.733Z,99346.63
2022-10-04T00:22:31.205Z,99356.13
2022-10-04T00:27:36.861Z,99349.69
2022-10-04T00:33:09.390Z,99352.16
2022-10-04T00:38:20.182Z,99344.94
2022-10-04T00:43:28.945Z,99345.94
2022-10-04T00:48:49.658Z,99346.81
2022-10-04T00:54:15.715Z,99350.59
2022-10-04T00:59:32.146Z,99340.72
2022-10-04T01:04:43.350Z,99338.53
2022-10-04T01:09:57.469Z,99327.78
2022-10-04T01:15:08.974Z,99331.13
2022-10-04T01:20:33.776Z,99336.75
2022-10-04T01:25:54.998Z,99335.78
2022-10-04T01:31:00.125Z,99334.28
2022-10-04T01:36:05.184Z,99321.72
2022-10-04T01:41:14.877Z,99325.28
2022-10-04T01:46:28.302Z,99327.25
2022-10-04T01:51:36.525Z,99326.19
2022-10-04T01:56:48.090Z,99331.81
2022-10-04T02:01:58.415Z,99322.81
2022-10-04T02:07:05.818Z,99322.31
2022-10-04T02:12:17.664Z,99326.34
2022-10-04T02:17:25.696Z,99312.13
2022-10-04T02:22:30.961Z,99319.06
2022-10-04T02:27:38.809Z,99312.53
2022-10-04T02:33:01.083Z,99308.28
2022-10-04T02:38:12.754Z,99293.97
2022-10-04T02:43:26.260Z,99297.22
2022-10-04T02:48:43.195Z,99309.47
2022-10-04T02:54:02.278Z,99303.94
2022-10-04T02:59:16.928Z,99313.81
2022-10-04T03:04:26.612Z,99309.09
2022-10-04T03:09:33.237Z,99299.91
2022-10-04T03:14:42.156Z,99308.28
2022-10-04T03:19:50.574Z,99312.25
2022-10-04T03:24:59.007Z,99311.75
2022-10-04T03:30:07.376Z,99307.19
2022-10-04T03:35:28.876Z,99305.22
2022-10-04T03:40:36.536Z,99296.63
2022-10-04T03:45:45.260Z,99298.59
2022-10-04T03:50:52.398Z,99300.38
2022-10-04T03:56:00.938Z,99300.06
2022-10-04T04:01:20.456Z,99299.84
2022-10-04T04:06:27.386Z,99305.63
2022-10-04T04:11:32.979Z,99308.47
2022-10-04T04:16:41.025Z,99309.66
2022-10-04T04:21:46.040Z,99315.19
2022-10-04T04:26:56.000Z,99314.78
2022-10-04T04:32:08.830Z,99300.88
2022-10-04T04:37:14.195Z,99300.56
2022-10-04T04:42:21.549Z,99307.31
2022-10-04T04:47:40.814Z,99309.28
2022-10-04T04:52:48.398Z,99309.59
2022-10-04T04:57:56.279Z,99309.09
2022-10-04T05:03:06.464Z,99315.97
2022-10-04T05:08:17.429Z,99318.94
2022-10-04T05:13:22.950Z,99319.94
2022-10-04T05:18:37.988Z,99330.53
2022-10-04T05:23:45.845Z,99335.84
2022-10-04T05:28:50.937Z,99338.00
2022-10-04T05:34:04.499Z,99339.00
2022-10-04T05:39:23.352Z,99346.41
2022-10-04T05:44:31.310Z,99341.75
2022-10-04T05:49:45.489Z,99353.22
2022-10-04T05:55:24.901Z,99362.19
2022-10-04T06:00:42.718Z,99358.06
2022-10-04T06:05:53.528Z,99371.38
2022-10-04T06:11:14.665Z,99369.50
2022-10-04T06:16:29.903Z,99372.19
2022-10-04T06:21:47.479Z,99371.94
2022-10-04T06:27:01.119Z,99371.75
2022-10-04T06:32:26.918Z,99367.38
2022-10-04T06:37:59.598Z,99381.22
2022-10-04T06:43:25.619Z,99373.66
2022-10-04T06:49:03.387Z,99379.09
2022-10-04T06:54:27.974Z,99388.38
2022-10-04T06:59:51.152Z,99400.16
2022-10-04T07:05:09.726Z,99394.81
2022-10-04T07:10:41.636Z,99413.63
2022-10-04T07:15:53.720Z,99402.94
2022-10-04T07:21:13.876Z,99412.06
2022-10-04T07:26:29.630Z,99411.97
2022-10-04T07:31:38.768Z,99411.47
2022-10-04T07:36:56.456Z,99417.72
2022-10-04T07:42:17.333Z,99424.16
2022-10-04T07:47:25.871Z,99429.47
2022-10-04T07:52:52.772Z,99426.78
2022-10-04T07:58:22.235Z,99433.72
2022-10-04T08:03:51.372Z,99423.94
2022-10-04T08:09:34.121Z,99433.91
2022-10-04T08:14:56.333Z,99448.91
2022-10-04T08:20:15.263Z,99455.09
2022-10-04T08:25:29.333Z,99446.78
2022-10-04T08:30:49.407Z,99456.19
2022-10-04T08:36:03.414Z,99453.84
2022-10-04T08:41:50.551Z,99460.75
2022-10-04T08:47:44.540Z,99459.97
2022-10-04T08:53:11.353Z,99457.88
2022-10-04T08:58:19.509Z,99467.31
2022-10-04T09:04:04.429Z,99469.28
2022-10-04T09:09:54.413Z,99455.72
2022-10-04T09:15:34.844Z,99461.72
2022-10-04T09:20:57.920Z,99465.91
2022-10-04T09:26:23.511Z,99459.53
2022-10-04T09:31:49.020Z,99464.72
2022-10-04T09:37:19.750Z,99464.38
2022-10-04T09:42:51.585Z,99452.50
2022-10-04T09:48:12.085Z,99454.09
2022-10-04T09:53:45.256Z,99462.47
2022-10-04T09:59:11.838Z,99457.66
2022-10-04T10:04:38.407Z,99451.16
2022-10-04T10:10:06.618Z,99462.97
2022-10-04T10:15:25.681Z,99469.25
2022-10-04T10:21:00.909Z,99464.06
2022-10-04T10:26:35.908Z,99467.09
2022-10-04T10:32:02.311Z,99465.94
2022-10-04T10:37:19.604Z,99469.91
2022-10-04T10:42:53.308Z,99464.09
2022-10-04T10:48:03.945Z,99471.44
2022-10-04T10:53:34.380Z,99473.88
2022-10-04T10:59:10.507Z,99474.63
2022-10-04T11:04:55.255Z,99459.13
2022-10-04T11:10:51.163Z,99458.53
2022-10-04T11:16:22.567Z,99456.22
2022-10-04T11:21:56.922Z,99451.25
2022-10-04T11:27:19.861Z,99449.00
2022-10-04T11:32:54.963Z,99453.81
2022-10-04T11:38:14.913Z,99450.88
2022-10-04T11:43:38.952Z,99457.38
2022-10-04T11:49:03.450Z,99443.56
2022-10-04T11:54:34.704Z,99449.38
2022-10-04T11:59:51.401Z,99445.56
2022-10-04T12:05:43.611Z,99440.72
2022-10-04T12:11:21.771Z,99434.94
2022-10-04T12:17:00.752Z,99425.13
2022-10-04T12:22:53.554Z,99421.19
2022-10-04T12:28:30.748Z,99420.44
2022-10-04T12:33:40.008Z,99409.59
2022-10-04T12:39:24.864Z,99411.00
2022-10-04T12:44:44.769Z,99401.59
2022-10-04T12:49:57.286Z,99399.00
2022-10-04T12:55:12.156Z,99405.28
2022-10-04T13:00:22.987Z,99394.28
2022-10-04T13:05:34.712Z,99409.50
2022-10-04T13:11:01.728Z,99418.00
2022-10-04T13:22:37.878Z,99410.56
2022-10-04T13:27:53.368Z,99413.69
2022-10-04T13:33:09.712Z,99417.97
2022-10-04T13:38:39.740Z,99407.19
2022-10-04T13:44:06.638Z,99409.47
2022-10-04T13:49:28.108Z,99406.53
2022-10-04T13:54:53.252Z,99403.44
2022-10-04T14:00:07.156Z,99396.97
2022-10-04T14:05:59.933Z,99403.72
2022-10-04T14:11:35.461Z,99397.63
2022-10-04T14:17:05.305Z,99394.50
2022-10-04T14:22:47.126Z,99402.34
2022-10-04T14:28:23.828Z,99397.47
2022-10-04T14:34:16.272Z,99399.94
2022-10-04T14:39:51.146Z,99384.88
2022-10-04T14:45:16.623Z,99372.13
2022-10-04T14:50:30.305Z,99378.28
2022-10-04T14:55:57.817Z,99369.19
2022-10-04T15:01:21.353Z,99376.00
2022-10-04T15:06:37.999Z,99371.75
2022-10-04T15:12:21.584Z,99377.75
2022-10-04T15:17:34.718Z,99372.28
2022-10-04T15:22:44.952Z,99362.50
2022-10-04T15:28:01.403Z,99339.50
2022-10-04T15:33:33.450Z,99332.97
2022-10-04T15:38:47.835Z,99330.34
2022-10-04T15:44:35.237Z,99323.41
2022-10-04T15:49:57.440Z,99321.72
2022-10-04T15:55:22.535Z,99324.59
2022-10-04T16:00:32.826Z,99322.47
2022-10-04T16:05:47.596Z,99315.34
2022-10-04T16:11:08.398Z,99305.66
2022-10-04T16:16:33.670Z,99306.75
2022-10-04T16:21:52.874Z,99311.00
2022-10-04T16:27:22.628Z,99309.75
2022-10-04T16:32:31.068Z,99312.72
2022-10-04T16:37:44.989Z,99309.88
2022-10-04T16:43:02.413Z,99312.03
2022-10-04T16:48:19.416Z,99322.28
2022-10-04T16:53:37.112Z,99327.31
2022-10-04T16:58:55.725Z,99334.09
2022-10-04T17:04:12.417Z,99335.00
2022-10-04T17:09:32.227Z,99336.53
2022-10-04T17:15:10.231Z,99321.25
2022-10-04T17:20:25.716Z,99319.16
2022-10-04T17:25:45.650Z,99319.16
2022-10-04T17:30:58.514Z,99316.78
2022-10-04T17:36:30.199Z,99326.97
2022-10-04T17:41:53.698Z,99325.56
2022-10-04T17:47:04.637Z,99322.72
2022-10-04T17:52:30.894Z,99320.06
2022-10-04T17:57:47.545Z,99327.78
2022-10-04T18:03:08.791Z,99343.31
2022-10-04T18:08:18.660Z,99349.13
2022-10-04T18:13:36.681Z,99358.66
2022-10-04T18:18:44.466Z,99370.34
2022-10-04T18:23:57.502Z,99370.47
2022-10-04T18:29:10.402Z,99368.78
2022-10-04T18:34:32.324Z,99343.13
2022-10-04T18:39:53.256Z,99349.63
2022-10-04T18:45:05.842Z,99359.44
2022-10-04T18:50:21.882Z,99361.00
2022-10-04T18:55:41.729Z,99351.91
2022-10-04T19:01:09.342Z,99347.00
2022-10-04T19:06:20.176Z,99342.59
2022-10-04T19:11:32.396Z,99344.53
2022-10-04T19:16:53.146Z,99346.69
2022-10-04T19:22:11.317Z,99354.13
2022-10-04T19:27:30.210Z,99351.94
2022-10-04T19:32:47.816Z,99354.03
2022-10-04T19:38:04.020Z,99364.13
2022-10-04T19:43:17.123Z,99378.84
2022-10-04T19:48:31.268Z,99358.47
2022-10-04T19:53:43.753Z,99365.41
2022-10-04T19:58:54.999Z,99358.50
2022-10-04T20:04:15.121Z,99369.34
2022-10-04T20:09:35.525Z,99382.59
2022-10-04T20:14:50.491Z,99383.78
2022-10-04T20:20:03.564Z,99393.28
2022-10-04T20:25:10.469Z,99404.78
2022-10-04T20:30:16.744Z,99418.59
2022-10-04T20:36:06.648Z,99408.19
2022-10-04T20:41:54.842Z,99418.59
2022-10-04T20:47:03.505Z,99409.31
2022-10-04T20:52:08.439Z,99411.84
2022-10-04T20:57:15.942Z,99408.59
2022-10-04T21:02:25.048Z,99408.69
2022-10-04T21:07:31.074Z,99419.25
2022-10-04T21:12:42.687Z,99420.25
2022-10-04T21:18:03.034Z,99427.31
2022-10-04T21:23:13.143Z,99428.47
2022-10-04T21:28:37.789Z,99440.47
2022-10-04T21:33:46.282Z,99436.72
2022-10-04T21:38:51.170Z,99431.84
2022-10-04T21:43:56.185Z,99423.94
2022-10-04T21:49:06.603Z,99413.44
2022-10-04T21:54:11.458Z,99424.66
2022-10-04T21:59:18.749Z,99413.38
2022-10-04T22:04:28.097Z,99413.50
2022-10-04T22:09:33.972Z,99407.06
2022-10-04T22:14:43.164Z,99396.47
2022-10-04T22:19:53.034Z,99396.06
2022-10-04T22:25:01.419Z,99410.28
2022-10-04T22:30:06.980Z,99414.81
2022-10-04T22:35:18.838Z,99398.06
2022-10-04T22:40:27.406Z,99375.13
2022-10-04T22:45:34.152Z,99369.94
2022-10-04T22:50:41.688Z,99351.41
2022-10-04T22:55:46.884Z,99340.78
2022-10-04T23:00:52.836Z,99330.75
2022-10-04T23:06:03.391Z,99316.75
2022-10-04T23:11:08.443Z,99307.41
2022-10-04T23:16:16.758Z,99311.16
2022-10-04T23:21:29.039Z,99304.63
2022-10-04T23:26:39.217Z,99301.47
2022-10-04T23:31:48.344Z,99293.72
2022-10-04T23:36:55.780Z,99293.22
2022-10-04T23:42:01.235Z,99292.78
2022-10-04T23:47:11.325Z,99285.88
2022-10-04T23:52:26.791Z,99281.41
2022-10-04T23:57:33.163Z,99270.72
